CheckWX is a tool to help pilots better visualize weather data.  It is not intended as a substitute for an official pre-flight weather briefing.

06:57:02 UTC

KMLI TAF
Quad City International Airport
Moline, Illinois, USA
KMLI 210540Z 2106/2206 17012G18KT P6SM SKC FM211200 18010KT 6SM BR SCT012 OVC020 FM211600 20013KT 4SM SHRA BR OVC015 FM212000 19012G20KT P6SM SCT020 OVC035 FM220200 19012KT 3SM SHRA VCTS OVC015CB

Sep-21@
06:00 UTC

Sep-21 @ 06:00 UTC

Sep-21@
12:00 UTC

Sep-21 @ 12:00 UTC

KMLI 210540Z 2106/2206 17012G18KT P6SM SKC
Wind
  • 170° at 12 KTS
  • {Gusting to 18 KTS
Cloud Levels
  • Clear skies

Sep-21@
12:00 UTC

Sep-21 @ 12:00 UTC

Sep-21@
16:00 UTC

Sep-21 @ 16:00 UTC

FM211200 18010KT 6SM BR SCT012 OVC020

From

From Standard forecast or significant change

Wind
  • 180° at 10 KTS
Conditions
Mist
Cloud Levels
  • Scattered at 1,200' AGL
  • Overcast at 2,000' AGL

Sep-21@
16:00 UTC

Sep-21 @ 16:00 UTC

Sep-21@
20:00 UTC

Sep-21 @ 20:00 UTC

FM211600 20013KT 4SM SHRA BR OVC015

From

From Standard forecast or significant change

Wind
  • 200° at 13 KTS
Conditions
Rain, Mist
Cloud Levels
  • Overcast at 1,500' AGL

Sep-21@
20:00 UTC

Sep-21 @ 20:00 UTC

Sep-22@
02:00 UTC

Sep-22 @ 02:00 UTC

FM212000 19012G20KT P6SM SCT020 OVC035

From

From Standard forecast or significant change

Wind
  • 190° at 12 KTS
  • {Gusting to 20 KTS
Cloud Levels
  • Scattered at 2,000' AGL
  • Overcast at 3,500' AGL

Sep-22@
02:00 UTC

Sep-22 @ 02:00 UTC

Sep-22@
06:00 UTC

Sep-22 @ 06:00 UTC

FM220200 19012KT 3SM SHRA VCTS OVC015CB

From

From Standard forecast or significant change

Wind
  • 190° at 12 KTS
Conditions
Rain, Area Thunderstorm
Cloud Levels
  • Overcast at 1,500' AGL